Time;durP1;ratioP1;P1;durP2;ratioP2;P2;SDS_P1;SDS_P2;PMS_P1;PMS_P2;Temp;Humidity;BMP_temperature;BMP_pressure;BME280_temperature;BME280_humidity;BME280_pressure;Samples;Min_cycle;Max_cycle;Signal;HPM_P1;HPM_P2
2023/01/26 00:00:23;;;;;;;;;;;0.10;99.90;;;;;;4929639;29;20156;-70
2023/01/26 00:02:55;;;;;;;;;;;0.10;99.90;;;;;;4925766;29;19985;-71
2023/01/26 00:05:26;;;;;;;;;;;0.10;99.90;;;;;;4927853;29;19926;-72
2023/01/26 00:07:58;;;;;;;;;;;0.10;99.90;;;;;;4923301;29;19978;-70
2023/01/26 00:10:30;;;;;;;;;;;0.10;99.90;;;;;;4914824;29;19926;-71
2023/01/26 00:13:01;;;;;;;;;;;0.10;99.90;;;;;;4926694;29;19927;-70
2023/01/26 00:15:34;;;;;;;;;;;0.10;99.90;;;;;;4912233;29;19927;-71
2023/01/26 00:18:06;;;;;;;;;;;0.10;99.90;;;;;;4925186;29;19927;-72
2023/01/26 00:20:37;;;;;;;;;;;0.10;99.90;;;;;;4906694;29;19994;-72
2023/01/26 00:23:09;;;;;;;;;;;0.10;99.90;;;;;;4916055;29;19935;-72
2023/01/26 00:25:39;;;;;;;;;;;0.00;99.90;;;;;;4924362;29;19931;-70
2023/01/26 00:28:06;;;;;;;;;;;0.00;99.90;;;;;;4928078;29;19926;-71
2023/01/26 00:30:37;;;;;;;;;;;0.00;99.90;;;;;;4929200;29;19934;-71
2023/01/26 00:33:09;;;;;;;;;;;0.00;99.90;;;;;;4910861;29;19931;-72
2023/01/26 00:35:35;;;;;;;;;;;0.00;99.90;;;;;;4924379;29;20351;-71
2023/01/26 00:38:07;;;;;;;;;;;0.00;99.90;;;;;;4909592;29;19927;-71
2023/01/26 00:40:40;;;;;;;;;;;0.00;99.90;;;;;;4922890;29;19935;-72
2023/01/26 00:43:07;;;;;;;;;;;0.00;99.90;;;;;;4925682;29;19943;-71
2023/01/26 00:45:38;;;;;;;;;;;0.00;99.90;;;;;;4924350;29;19927;-72
2023/01/26 00:48:10;;;;;;;;;;;0.00;99.90;;;;;;4926314;29;19927;-73
2023/01/26 00:50:36;;;;;;;;;;;-0.10;99.90;;;;;;4925406;29;19931;-72
2023/01/26 00:53:08;;;;;;;;;;;-0.10;99.90;;;;;;4926580;29;19975;-73
2023/01/26 00:55:40;;;;;;;;;;;-0.10;99.90;;;;;;4924853;29;19927;-71
2023/01/26 00:58:11;;;;;;;;;;;-0.10;99.90;;;;;;4907355;29;19927;-71
2023/01/26 01:00:43;;;;;;;;;;;-0.10;99.90;;;;;;4910403;29;19935;-71
2023/01/26 01:03:14;;;;;;;;;;;-0.10;99.90;;;;;;4924890;29;19938;-71
2023/01/26 01:05:46;;;;;;;;;;;-0.10;99.90;;;;;;4925048;29;19975;-71
2023/01/26 01:08:17;;;;;;;;;;;0.00;99.90;;;;;;4923702;29;19938;-72
2023/01/26 01:10:49;;;;;;;;;;;0.00;99.90;;;;;;4923137;29;19976;-74
2023/01/26 01:13:21;;;;;;;;;;;0.00;99.90;;;;;;4914570;29;19955;-71
2023/01/26 01:15:47;;;;;;;;;;;0.00;99.90;;;;;;4932702;29;19933;-76
2023/01/26 01:18:19;;;;;;;;;;;0.00;99.90;;;;;;4947504;29;19939;-71
2023/01/26 01:20:50;;;;;;;;;;;0.00;99.90;;;;;;4933121;29;20343;-73
2023/01/26 01:23:22;;;;;;;;;;;0.10;99.90;;;;;;4934471;29;19927;-71
2023/01/26 01:25:58;;;;;;;;;;;0.10;99.90;;;;;;4906480;29;19926;-71
2023/01/26 01:28:31;;;;;;;;;;;0.10;99.90;;;;;;4925120;29;19927;-71
2023/01/26 01:31:03;;;;;;;;;;;0.10;99.90;;;;;;4921929;29;19949;-72
2023/01/26 01:33:35;;;;;;;;;;;0.00;99.90;;;;;;4929070;29;19930;-71
2023/01/26 01:36:09;;;;;;;;;;;0.00;99.90;;;;;;4925782;29;20398;-72
2023/01/26 01:38:41;;;;;;;;;;;0.00;99.90;;;;;;4909417;29;19982;-71
2023/01/26 01:41:08;;;;;;;;;;;-0.10;99.90;;;;;;4927548;29;19927;-73
2023/01/26 01:43:35;;;;;;;;;;;-0.10;99.90;;;;;;4920965;29;19988;-72
2023/01/26 01:46:11;;;;;;;;;;;-0.10;99.90;;;;;;4920622;29;19927;-71
2023/01/26 01:48:51;;;;;;;;;;;-0.10;99.90;;;;;;4892664;29;19927;-71
2023/01/26 01:51:30;;;;;;;;;;;-0.10;99.90;;;;;;4925521;29;20032;-71
2023/01/26 01:54:04;;;;;;;;;;;-0.10;99.90;;;;;;4917347;29;19927;-71
2023/01/26 01:56:32;;;;;;;;;;;-0.10;99.90;;;;;;4909117;29;19990;-71
2023/01/26 01:59:05;;;;;;;;;;;-0.10;99.90;;;;;;4918647;29;19949;-75
2023/01/26 02:01:37;;;;;;;;;;;-0.10;99.90;;;;;;4923140;29;19931;-71
2023/01/26 02:04:08;;;;;;;;;;;-0.10;99.90;;;;;;4920983;29;19927;-72
2023/01/26 02:06:45;;;;;;;;;;;0.00;99.90;;;;;;4928648;29;19934;-72
2023/01/26 02:10:17;;;;;;;;;;;-0.10;99.90;;;;;;4921220;29;19929;-72
2023/01/26 02:12:05;;;;;;;;;;;0.00;99.90;;;;;;4920100;29;19931;-71
2023/01/26 02:14:37;;;;;;;;;;;0.00;99.90;;;;;;4908351;29;19927;-71
2023/01/26 02:17:09;;;;;;;;;;;-0.10;99.90;;;;;;4924206;29;19927;-74
2023/01/26 02:19:35;;;;;;;;;;;0.00;99.90;;;;;;4906754;29;19931;-71
2023/01/26 02:22:06;;;;;;;;;;;0.00;99.90;;;;;;4919731;29;19970;-71
2023/01/26 02:24:38;;;;;;;;;;;0.00;99.90;;;;;;4919653;29;19983;-70
2023/01/26 02:27:05;;;;;;;;;;;0.00;99.90;;;;;;4924389;29;20278;-72
2023/01/26 02:29:32;;;;;;;;;;;0.00;99.90;;;;;;4917998;29;20295;-71
2023/01/26 02:32:05;;;;;;;;;;;-0.10;99.90;;;;;;4928214;29;20403;-71
2023/01/26 02:34:37;;;;;;;;;;;-0.10;99.90;;;;;;4895605;29;20394;-71
2023/01/26 02:37:12;;;;;;;;;;;-0.10;99.90;;;;;;4920568;29;19931;-71
2023/01/26 02:39:54;;;;;;;;;;;-0.10;99.90;;;;;;4914401;29;19965;-71
2023/01/26 02:42:40;;;;;;;;;;;-0.10;99.90;;;;;;4908133;29;19977;-70
2023/01/26 02:45:09;;;;;;;;;;;-0.10;99.90;;;;;;4913364;29;19975;-71
2023/01/26 02:47:39;;;;;;;;;;;-0.10;99.90;;;;;;4907472;29;19937;-71
2023/01/26 02:50:08;;;;;;;;;;;-0.20;99.90;;;;;;4905485;29;19987;-72
2023/01/26 02:52:37;;;;;;;;;;;-0.20;99.90;;;;;;4922674;29;19927;-71
2023/01/26 02:55:27;;;;;;;;;;;-0.30;99.90;;;;;;4906559;29;20426;-72
2023/01/26 02:57:56;;;;;;;;;;;-0.30;99.90;;;;;;4899937;29;19930;-72
2023/01/26 03:00:26;;;;;;;;;;;-0.30;99.90;;;;;;4902192;29;20334;-72
2023/01/26 03:02:56;;;;;;;;;;;-0.40;99.90;;;;;;4924192;29;19927;-71
2023/01/26 03:05:25;;;;;;;;;;;-0.40;99.90;;;;;;4923761;29;19934;-71
2023/01/26 03:07:54;;;;;;;;;;;-0.40;99.90;;;;;;4918594;29;19927;-72
2023/01/26 03:10:27;;;;;;;;;;;-0.30;99.90;;;;;;4903297;29;20642;-72
2023/01/26 03:12:56;;;;;;;;;;;-0.30;99.90;;;;;;4921848;29;20029;-72
2023/01/26 03:15:46;;;;;;;;;;;-0.30;99.90;;;;;;4926256;29;19927;-71
2023/01/26 03:29:29;;;;;;;;;;;-0.20;99.90;;;;;;4918773;29;19934;-72
2023/01/26 03:31:59;;;;;;;;;;;-0.20;99.90;;;;;;4923983;29;19958;-71
2023/01/26 03:34:28;;;;;;;;;;;-0.20;99.90;;;;;;4918768;29;20543;-71
2023/01/26 03:36:57;;;;;;;;;;;-0.20;99.90;;;;;;4907100;29;20388;-71
2023/01/26 03:56:17;;;;;;;;;;;-0.30;99.90;;;;;;4926000;29;19927;-71
2023/01/26 03:58:49;;;;;;;;;;;-0.30;99.90;;;;;;4908424;29;19937;-71
2023/01/26 04:01:19;;;;;;;;;;;-0.30;99.90;;;;;;4922501;29;19949;-73
2023/01/26 04:09:24;;;;;;;;;;;-0.40;99.90;;;;;;4923680;29;20013;-71
2023/01/26 04:11:53;;;;;;;;;;;-0.40;99.90;;;;;;4926552;29;20013;-75
2023/01/26 04:22:45;;;;;;;;;;;-0.50;99.90;;;;;;4925781;29;19926;-71
2023/01/26 04:25:17;;;;;;;;;;;-0.50;99.90;;;;;;4926599;29;19931;-71
2023/01/26 04:27:45;;;;;;;;;;;-0.40;99.90;;;;;;4909145;29;19978;-71
2023/01/26 04:30:20;;;;;;;;;;;-0.40;99.90;;;;;;4922885;29;19977;-71
2023/01/26 04:32:50;;;;;;;;;;;-0.50;99.90;;;;;;4907339;29;19928;-72
2023/01/26 04:35:18;;;;;;;;;;;-0.50;99.90;;;;;;4924536;29;19934;-72
2023/01/26 04:37:50;;;;;;;;;;;-0.50;99.90;;;;;;4929647;29;19957;-71
2023/01/26 04:40:21;;;;;;;;;;;-0.50;99.90;;;;;;4911932;29;19931;-72
2023/01/26 04:42:53;;;;;;;;;;;-0.50;99.90;;;;;;4924243;28;19957;-73
2023/01/26 04:45:24;;;;;;;;;;;-0.40;99.90;;;;;;4905918;29;20035;-71
2023/01/26 04:47:56;;;;;;;;;;;-0.40;99.90;;;;;;4926245;29;19927;-72
2023/01/26 04:50:25;;;;;;;;;;;-0.40;99.90;;;;;;4924544;28;19927;-72
2023/01/26 04:53:04;;;;;;;;;;;-0.40;99.90;;;;;;4922432;29;19927;-71
2023/01/26 04:56:03;;;;;;;;;;;-0.30;99.90;;;;;;4908099;29;20014;-73
2023/01/26 04:58:58;;;;;;;;;;;-0.30;99.90;;;;;;4912594;29;19918;-71
2023/01/26 05:01:28;;;;;;;;;;;-0.30;99.90;;;;;;4922091;29;19938;-72
2023/01/26 05:04:02;;;;;;;;;;;-0.30;99.90;;;;;;4921546;29;19931;-71
2023/01/26 05:06:32;;;;;;;;;;;-0.30;99.90;;;;;;4909852;29;20450;-71
2023/01/26 05:09:03;;;;;;;;;;;-0.30;99.90;;;;;;4905181;29;19951;-72
2023/01/26 05:11:33;;;;;;;;;;;-0.30;99.90;;;;;;4908779;29;20026;-71
2023/01/26 05:14:23;;;;;;;;;;;-0.30;99.90;;;;;;4920107;29;20074;-71
2023/01/26 05:17:09;;;;;;;;;;;-0.20;99.90;;;;;;4901256;29;19978;-71
2023/01/26 05:20:04;;;;;;;;;;;-0.20;99.90;;;;;;4909101;29;19933;-71
2023/01/26 05:22:51;;;;;;;;;;;-0.20;99.90;;;;;;4915767;29;20472;-72
2023/01/26 05:25:55;;;;;;;;;;;-0.20;99.90;;;;;;4925423;29;20071;-71
2023/01/26 05:28:26;;;;;;;;;;;-0.20;99.90;;;;;;4931484;29;19938;-71
2023/01/26 05:30:56;;;;;;;;;;;-0.20;99.90;;;;;;4929648;29;19994;-71
2023/01/26 05:33:24;;;;;;;;;;;-0.20;99.90;;;;;;4922249;29;20017;-71
2023/01/26 05:36:01;;;;;;;;;;;-0.30;99.90;;;;;;4924478;29;19926;-72
2023/01/26 05:38:32;;;;;;;;;;;-0.30;99.90;;;;;;4908822;29;19927;-71
2023/01/26 05:41:00;;;;;;;;;;;-0.30;99.90;;;;;;4916276;29;19935;-71
2023/01/26 05:43:42;;;;;;;;;;;-0.20;99.90;;;;;;4901991;29;19931;-73
2023/01/26 05:46:23;;;;;;;;;;;-0.30;99.90;;;;;;4928971;29;19933;-71
2023/01/26 05:48:54;;;;;;;;;;;-0.20;99.90;;;;;;4906815;29;19934;-73
2023/01/26 05:51:23;;;;;;;;;;;-0.20;99.90;;;;;;4907699;29;19931;-71
2023/01/26 05:53:53;;;;;;;;;;;-0.10;99.90;;;;;;4909149;29;19931;-72
2023/01/26 05:56:24;;;;;;;;;;;-0.10;99.90;;;;;;4907737;29;19938;-71
2023/01/26 05:59:00;;;;;;;;;;;-0.10;99.90;;;;;;4927399;29;19982;-71
2023/01/26 06:01:30;;;;;;;;;;;-0.10;99.90;;;;;;4933329;29;19933;-71
2023/01/26 06:04:02;;;;;;;;;;;-0.10;99.90;;;;;;4890618;29;19927;-71
2023/01/26 06:06:37;;;;;;;;;;;-0.10;99.90;;;;;;4909420;29;19930;-72
2023/01/26 06:09:32;;;;;;;;;;;-0.10;99.90;;;;;;4913694;29;20321;-72
2023/01/26 06:12:16;;;;;;;;;;;-0.10;99.90;;;;;;4910889;29;19927;-73
2023/01/26 06:14:54;;;;;;;;;;;-0.10;99.90;;;;;;4927659;29;19934;-71
2023/01/26 06:17:48;;;;;;;;;;;-0.10;99.90;;;;;;4929880;29;19981;-71
2023/01/26 06:20:23;;;;;;;;;;;-0.10;99.90;;;;;;4914030;29;19926;-71
2023/01/26 06:23:00;;;;;;;;;;;-0.10;99.90;;;;;;4911236;29;19970;-73
2023/01/26 06:25:33;;;;;;;;;;;-0.10;99.90;;;;;;4930893;28;19942;-74
2023/01/26 06:28:13;;;;;;;;;;;-0.10;99.90;;;;;;4910832;29;19927;-72
2023/01/26 06:30:46;;;;;;;;;;;-0.10;99.90;;;;;;4930085;29;19966;-72
2023/01/26 06:33:16;;;;;;;;;;;-0.10;99.90;;;;;;4912900;29;20561;-70
2023/01/26 06:35:47;;;;;;;;;;;-0.10;99.90;;;;;;4913827;29;19938;-71
2023/01/26 06:38:17;;;;;;;;;;;-0.10;99.90;;;;;;4914226;29;19934;-72
2023/01/26 06:40:46;;;;;;;;;;;-0.10;99.90;;;;;;4929371;29;19966;-71
2023/01/26 06:43:15;;;;;;;;;;;-0.10;99.90;;;;;;4914046;29;19937;-73
2023/01/26 06:45:46;;;;;;;;;;;-0.10;99.90;;;;;;4914033;29;19927;-72
2023/01/26 06:48:19;;;;;;;;;;;-0.10;99.90;;;;;;4915736;29;19927;-72
2023/01/26 06:50:52;;;;;;;;;;;-0.10;99.90;;;;;;4923428;29;20021;-71
2023/01/26 06:53:29;;;;;;;;;;;-0.10;99.90;;;;;;4918739;29;19934;-72
2023/01/26 06:56:19;;;;;;;;;;;-0.10;99.90;;;;;;4925500;29;20544;-71
2023/01/26 06:59:11;;;;;;;;;;;-0.10;99.90;;;;;;4932823;29;20428;-77
2023/01/26 07:02:00;;;;;;;;;;;-0.10;99.90;;;;;;4924958;29;19926;-71
2023/01/26 07:04:40;;;;;;;;;;;-0.10;99.90;;;;;;4913508;29;19931;-71
2023/01/26 07:07:10;;;;;;;;;;;-0.10;99.90;;;;;;4916824;29;19927;-71
2023/01/26 07:09:39;;;;;;;;;;;-0.10;99.90;;;;;;4919244;29;19959;-74
2023/01/26 07:12:10;;;;;;;;;;;-0.10;99.90;;;;;;4919274;29;19931;-73
2023/01/26 07:14:42;;;;;;;;;;;-0.10;99.90;;;;;;4946157;28;19939;-71
2023/01/26 07:17:16;;;;;;;;;;;-0.10;99.90;;;;;;4911164;29;20425;-71
2023/01/26 07:19:46;;;;;;;;;;;0.00;99.90;;;;;;4933142;29;20459;-71
2023/01/26 07:22:17;;;;;;;;;;;-0.10;99.90;;;;;;4920321;29;19986;-71
2023/01/26 07:24:50;;;;;;;;;;;-0.10;99.90;;;;;;4914290;29;20421;-72
2023/01/26 07:27:19;;;;;;;;;;;-0.10;99.90;;;;;;4926654;29;20278;-71
2023/01/26 07:29:50;;;;;;;;;;;-0.10;99.90;;;;;;4924945;28;20366;-71
2023/01/26 07:32:22;;;;;;;;;;;-0.10;99.90;;;;;;4915075;29;19927;-71
2023/01/26 07:34:51;;;;;;;;;;;-0.10;99.90;;;;;;4918147;29;19927;-71
2023/01/26 07:37:20;;;;;;;;;;;-0.10;99.90;;;;;;4906031;29;20279;-71
2023/01/26 07:39:59;;;;;;;;;;;-0.10;99.90;;;;;;4915757;29;19927;-71
2023/01/26 07:42:29;;;;;;;;;;;-0.20;99.90;;;;;;4919033;29;20577;-71
2023/01/26 07:45:17;;;;;;;;;;;-0.20;99.90;;;;;;4925835;29;19930;-71
2023/01/26 07:47:48;;;;;;;;;;;-0.20;99.90;;;;;;4915166;29;19931;-74
2023/01/26 07:50:35;;;;;;;;;;;-0.20;99.90;;;;;;4899704;29;19962;-72
2023/01/26 07:53:21;;;;;;;;;;;-0.20;99.90;;;;;;4924222;29;19990;-71
2023/01/26 07:55:53;;;;;;;;;;;-0.20;99.90;;;;;;4914090;29;19926;-71
2023/01/26 07:58:26;;;;;;;;;;;-0.20;99.90;;;;;;4910186;29;20466;-71
2023/01/26 08:00:56;;;;;;;;;;;-0.20;99.90;;;;;;4932324;29;20014;-72
2023/01/26 08:04:04;;;;;;;;;;;-0.20;99.90;;;;;;4906847;29;20302;-70
2023/01/26 08:06:33;;;;;;;;;;;-0.20;99.90;;;;;;4931135;29;19954;-72
2023/01/26 08:09:03;;;;;;;;;;;-0.20;99.90;;;;;;4907218;29;20363;-71
2023/01/26 08:11:32;;;;;;;;;;;-0.10;99.90;;;;;;4916524;29;20368;-73
2023/01/26 08:14:02;;;;;;;;;;;-0.10;99.90;;;;;;4917258;29;19927;-70
2023/01/26 08:16:32;;;;;;;;;;;0.00;99.90;;;;;;4916398;29;19978;-72
2023/01/26 08:19:01;;;;;;;;;;;0.00;99.90;;;;;;4918908;29;20314;-72
2023/01/26 08:21:35;;;;;;;;;;;-0.10;99.90;;;;;;4915999;29;20030;-71
2023/01/26 08:24:05;;;;;;;;;;;-0.10;99.90;;;;;;4916248;29;20287;-71
2023/01/26 08:26:36;;;;;;;;;;;-0.10;99.90;;;;;;4922303;29;20026;-71
2023/01/26 08:29:06;;;;;;;;;;;0.00;99.90;;;;;;4921292;29;19934;-70
2023/01/26 08:31:35;;;;;;;;;;;0.00;99.90;;;;;;4914391;29;19965;-71
2023/01/26 08:34:08;;;;;;;;;;;0.00;99.90;;;;;;4912708;29;20386;-72
2023/01/26 08:36:41;;;;;;;;;;;0.00;99.90;;;;;;4920971;29;20022;-72
2023/01/26 08:39:10;;;;;;;;;;;0.00;99.90;;;;;;4926517;29;19935;-72
2023/01/26 08:41:39;;;;;;;;;;;0.10;99.90;;;;;;4915963;29;19975;-72
2023/01/26 08:44:26;;;;;;;;;;;0.20;99.90;;;;;;4932935;29;19926;-72
2023/01/26 08:47:50;;;;;;;;;;;0.20;99.90;;;;;;4910682;29;19939;-72
2023/01/26 08:50:21;;;;;;;;;;;0.20;99.90;;;;;;4923032;29;20386;-73
2023/01/26 08:52:50;;;;;;;;;;;0.20;99.90;;;;;;4925282;29;19931;-72
2023/01/26 08:55:20;;;;;;;;;;;0.20;99.90;;;;;;4933448;29;19935;-72
2023/01/26 08:57:54;;;;;;;;;;;0.20;99.90;;;;;;4895077;29;20387;-72
2023/01/26 09:00:24;;;;;;;;;;;0.20;99.90;;;;;;4913352;29;20503;-72
2023/01/26 09:03:00;;;;;;;;;;;0.30;99.90;;;;;;4922450;28;19927;-72
2023/01/26 09:05:35;;;;;;;;;;;0.20;99.90;;;;;;4926666;29;19953;-72
2023/01/26 09:08:10;;;;;;;;;;;0.20;99.90;;;;;;4909533;29;19931;-72
2023/01/26 09:10:43;;;;;;;;;;;0.20;99.90;;;;;;4924231;29;20387;-72
2023/01/26 09:13:13;;;;;;;;;;;0.30;99.90;;;;;;4921070;29;19934;-72
2023/01/26 09:18:44;;;;;;;;;;;0.30;99.90;;;;;;4928800;29;19949;-72
2023/01/26 09:21:14;;;;;;;;;;;0.30;99.90;;;;;;4922587;29;20384;-72
2023/01/26 09:23:44;;;;;;;;;;;0.30;99.90;;;;;;4914216;29;19928;-73
2023/01/26 09:26:19;;;;;;;;;;;0.30;99.90;;;;;;4931046;28;19931;-72
2023/01/26 09:28:49;;;;;;;;;;;0.40;99.90;;;;;;4913056;29;19942;-72
2023/01/26 09:31:18;;;;;;;;;;;0.40;99.90;;;;;;4909643;29;19931;-72
2023/01/26 09:33:49;;;;;;;;;;;0.40;99.90;;;;;;4911796;29;19938;-72
2023/01/26 09:36:20;;;;;;;;;;;0.40;99.90;;;;;;4927509;29;19926;-72
2023/01/26 09:38:50;;;;;;;;;;;0.40;99.90;;;;;;4892097;29;19927;-72
2023/01/26 09:41:32;;;;;;;;;;;0.50;99.90;;;;;;4901507;29;19934;-72
2023/01/26 09:44:04;;;;;;;;;;;0.50;99.90;;;;;;4909864;29;20021;-72
2023/01/26 09:46:47;;;;;;;;;;;0.50;99.90;;;;;;4920724;29;19937;-72
2023/01/26 09:49:22;;;;;;;;;;;0.50;99.90;;;;;;4906881;29;19934;-72
2023/01/26 09:51:57;;;;;;;;;;;0.50;99.90;;;;;;4906702;29;19937;-72
2023/01/26 09:54:46;;;;;;;;;;;0.60;99.90;;;;;;4913060;29;19971;-72
2023/01/26 09:57:27;;;;;;;;;;;0.50;99.90;;;;;;4926512;29;19974;-72
2023/01/26 10:00:00;;;;;;;;;;;0.60;99.90;;;;;;4929113;29;19927;-72
2023/01/26 10:03:11;;;;;;;;;;;0.70;99.90;;;;;;4929105;29;19951;-72
2023/01/26 10:05:47;;;;;;;;;;;0.60;99.90;;;;;;4934993;29;19948;-72
2023/01/26 10:08:37;;;;;;;;;;;0.60;99.90;;;;;;4940337;29;19927;-72
2023/01/26 10:11:16;;;;;;;;;;;0.60;99.90;;;;;;4921354;29;20279;-72
2023/01/26 10:14:01;;;;;;;;;;;0.60;99.90;;;;;;4912475;29;19935;-72
2023/01/26 10:16:35;;;;;;;;;;;0.50;99.90;;;;;;4912569;29;20379;-72
2023/01/26 10:19:05;;;;;;;;;;;0.50;99.90;;;;;;4915734;29;19997;-73
2023/01/26 10:21:37;;;;;;;;;;;0.50;99.90;;;;;;4925707;29;19931;-72
2023/01/26 10:24:13;;;;;;;;;;;0.50;99.90;;;;;;4919324;29;19975;-72
2023/01/26 10:26:41;;;;;;;;;;;0.40;99.90;;;;;;4897893;29;20359;-72
2023/01/26 10:29:12;;;;;;;;;;;0.30;99.90;;;;;;4917190;29;20432;-72
2023/01/26 10:31:43;;;;;;;;;;;0.40;99.90;;;;;;4910459;29;19949;-72
2023/01/26 10:34:16;;;;;;;;;;;0.40;99.90;;;;;;4938615;28;19958;-72
2023/01/26 10:36:46;;;;;;;;;;;0.40;99.90;;;;;;4917266;29;19928;-72
2023/01/26 10:39:17;;;;;;;;;;;0.40;99.90;;;;;;4922388;29;19931;-72
2023/01/26 10:42:00;;;;;;;;;;;0.40;99.90;;;;;;4925315;29;19931;-72
2023/01/26 10:44:32;;;;;;;;;;;0.40;99.90;;;;;;4924102;28;19927;-72
2023/01/26 10:47:14;;;;;;;;;;;0.40;99.90;;;;;;4936659;29;20035;-72
2023/01/26 10:49:44;;;;;;;;;;;0.40;99.90;;;;;;4908246;29;19927;-72
2023/01/26 10:52:37;;;;;;;;;;;0.40;99.90;;;;;;4890840;29;20075;-72
2023/01/26 10:55:20;;;;;;;;;;;0.40;99.90;;;;;;4938608;29;19982;-72
2023/01/26 10:57:50;;;;;;;;;;;0.40;99.90;;;;;;4903854;29;19927;-71
2023/01/26 11:00:27;;;;;;;;;;;0.40;99.90;;;;;;4920443;29;19927;-71
2023/01/26 11:06:04;;;;;;;;;;;0.40;99.90;;;;;;4926274;29;19934;-72
2023/01/26 11:08:43;;;;;;;;;;;0.40;99.90;;;;;;4892190;29;19986;-71
2023/01/26 11:11:25;;;;;;;;;;;0.40;99.90;;;;;;4930640;28;20293;-72
2023/01/26 11:14:15;;;;;;;;;;;0.50;99.90;;;;;;4921348;29;20518;-72
2023/01/26 11:16:46;;;;;;;;;;;0.50;99.90;;;;;;4921642;29;19927;-72
2023/01/26 11:19:41;;;;;;;;;;;0.50;99.90;;;;;;4915116;29;19986;-72
2023/01/26 11:23:13;;;;;;;;;;;0.50;99.90;;;;;;4922703;29;19927;-72
2023/01/26 11:25:53;;;;;;;;;;;0.50;99.90;;;;;;4920760;29;19970;-72
2023/01/26 11:28:41;;;;;;;;;;;0.50;99.90;;;;;;4906538;29;20025;-72
2023/01/26 11:31:16;;;;;;;;;;;0.60;99.90;;;;;;4902723;29;19934;-72
2023/01/26 11:34:09;;;;;;;;;;;0.60;99.90;;;;;;4913736;29;19938;-72
2023/01/26 11:37:01;;;;;;;;;;;0.50;99.90;;;;;;4927197;29;19935;-72
2023/01/26 11:39:34;;;;;;;;;;;0.60;99.90;;;;;;4929203;29;19931;-71
2023/01/26 11:42:06;;;;;;;;;;;0.60;99.90;;;;;;4911730;29;20385;-72
2023/01/26 11:44:47;;;;;;;;;;;0.50;99.90;;;;;;4914827;29;20021;-72
2023/01/26 11:47:27;;;;;;;;;;;0.60;99.90;;;;;;4929072;29;19969;-72
2023/01/26 11:50:08;;;;;;;;;;;0.60;99.90;;;;;;4919497;29;20400;-72
2023/01/26 11:52:48;;;;;;;;;;;0.60;99.90;;;;;;4921736;29;19983;-72
2023/01/26 11:55:35;;;;;;;;;;;0.70;99.90;;;;;;4930289;28;20009;-72
2023/01/26 11:58:19;;;;;;;;;;;0.70;99.90;;;;;;4940249;29;20017;-72
2023/01/26 12:00:52;;;;;;;;;;;0.70;99.90;;;;;;4938357;29;19955;-72
2023/01/26 12:03:26;;;;;;;;;;;0.60;99.90;;;;;;4902284;29;19950;-72
2023/01/26 12:06:07;;;;;;;;;;;0.60;99.90;;;;;;4915042;29;19927;-72
2023/01/26 12:08:43;;;;;;;;;;;0.60;99.90;;;;;;4915428;29;19935;-72
2023/01/26 12:11:22;;;;;;;;;;;0.60;99.90;;;;;;4918111;29;19930;-72
2023/01/26 12:14:11;;;;;;;;;;;0.60;99.90;;;;;;4934629;29;19931;-72
2023/01/26 12:16:48;;;;;;;;;;;0.50;99.90;;;;;;4918775;29;20558;-72
2023/01/26 12:19:34;;;;;;;;;;;0.50;99.90;;;;;;4919446;28;20070;-72
2023/01/26 12:22:25;;;;;;;;;;;0.40;99.90;;;;;;4912677;29;19982;-72
2023/01/26 12:25:15;;;;;;;;;;;0.40;99.90;;;;;;4913530;29;19988;-72
2023/01/26 12:28:06;;;;;;;;;;;0.40;99.90;;;;;;4912615;29;19926;-72
2023/01/26 12:30:43;;;;;;;;;;;0.50;99.90;;;;;;4910280;29;19962;-72
2023/01/26 12:33:13;;;;;;;;;;;0.40;99.90;;;;;;4908991;29;19934;-72
2023/01/26 12:36:04;;;;;;;;;;;0.50;99.90;;;;;;4914551;29;19934;-72
2023/01/26 12:38:33;;;;;;;;;;;0.50;99.90;;;;;;4924187;29;20474;-71
2023/01/26 12:41:27;;;;;;;;;;;0.50;99.90;;;;;;4913462;29;19943;-71
2023/01/26 12:44:16;;;;;;;;;;;0.50;99.90;;;;;;4896686;29;19959;-72
2023/01/26 12:46:51;;;;;;;;;;;0.50;99.90;;;;;;4928371;29;20394;-71
2023/01/26 12:49:56;;;;;;;;;;;0.50;99.90;;;;;;4915229;29;20017;-71
2023/01/26 12:52:30;;;;;;;;;;;0.50;99.90;;;;;;4893580;29;19927;-72
2023/01/26 12:55:10;;;;;;;;;;;0.50;99.90;;;;;;4910945;29;19927;-71
2023/01/26 12:57:44;;;;;;;;;;;0.50;99.90;;;;;;4930544;29;19934;-71
2023/01/26 13:00:21;;;;;;;;;;;0.50;99.90;;;;;;4927515;29;19931;-71
2023/01/26 13:02:55;;;;;;;;;;;0.40;99.90;;;;;;4923609;29;21475;-71
2023/01/26 13:05:35;;;;;;;;;;;0.40;99.90;;;;;;4933148;29;19934;-72
2023/01/26 13:08:26;;;;;;;;;;;0.40;99.90;;;;;;4940064;29;19952;-72
2023/01/26 13:10:56;;;;;;;;;;;0.30;99.90;;;;;;4908437;29;19938;-72
2023/01/26 13:13:30;;;;;;;;;;;0.40;99.90;;;;;;4939577;29;19930;-72
2023/01/26 13:16:15;;;;;;;;;;;0.30;99.90;;;;;;4920884;29;19973;-72
2023/01/26 13:18:48;;;;;;;;;;;0.30;99.90;;;;;;4917307;29;19934;-72
2023/01/26 13:21:34;;;;;;;;;;;0.30;99.90;;;;;;4894460;29;19931;-72
2023/01/26 13:24:17;;;;;;;;;;;0.20;99.90;;;;;;4912683;29;19931;-71
2023/01/26 13:26:47;;;;;;;;;;;0.30;99.90;;;;;;4929557;29;19980;-72
2023/01/26 13:29:35;;;;;;;;;;;0.20;99.90;;;;;;4912003;29;19926;-72
2023/01/26 13:32:12;;;;;;;;;;;0.20;99.90;;;;;;4930743;29;21424;-72
2023/01/26 13:34:45;;;;;;;;;;;0.30;99.90;;;;;;4913241;29;19934;-71
2023/01/26 13:37:14;;;;;;;;;;;0.20;99.90;;;;;;4936581;29;19927;-72
2023/01/26 13:39:44;;;;;;;;;;;0.20;99.90;;;;;;4929786;29;20290;-71
2023/01/26 13:42:22;;;;;;;;;;;0.30;99.90;;;;;;4926417;29;19938;-71
2023/01/26 13:44:57;;;;;;;;;;;0.30;99.90;;;;;;4930193;29;20065;-72
2023/01/26 13:47:39;;;;;;;;;;;0.30;99.90;;;;;;4915182;29;20622;-72
2023/01/26 13:50:40;;;;;;;;;;;0.30;99.90;;;;;;4928690;29;20394;-72
2023/01/26 13:53:32;;;;;;;;;;;0.30;99.90;;;;;;4918564;29;19941;-72
2023/01/26 13:56:06;;;;;;;;;;;0.20;99.90;;;;;;4898625;29;19935;-72
2023/01/26 13:58:36;;;;;;;;;;;0.20;99.90;;;;;;4917318;29;19927;-72
2023/01/26 14:01:13;;;;;;;;;;;0.30;99.90;;;;;;4930219;29;19935;-71
2023/01/26 14:03:48;;;;;;;;;;;0.40;99.90;;;;;;4917633;29;20283;-72
2023/01/26 14:06:34;;;;;;;;;;;0.40;99.90;;;;;;4927396;29;20414;-72
2023/01/26 14:09:03;;;;;;;;;;;0.40;99.90;;;;;;4914556;29;20470;-72
2023/01/26 14:11:36;;;;;;;;;;;0.30;99.90;;;;;;4916786;29;20053;-72
2023/01/26 14:14:07;;;;;;;;;;;0.30;99.90;;;;;;4916922;29;19930;-72
2023/01/26 14:16:41;;;;;;;;;;;0.30;99.90;;;;;;4916879;29;19942;-72
2023/01/26 14:19:15;;;;;;;;;;;0.30;99.90;;;;;;4916936;29;19978;-72
2023/01/26 14:21:52;;;;;;;;;;;0.20;99.90;;;;;;4930936;29;20359;-72
2023/01/26 14:24:38;;;;;;;;;;;0.20;99.90;;;;;;4930368;29;19981;-71
2023/01/26 14:27:21;;;;;;;;;;;0.20;99.90;;;;;;4930095;29;20023;-71
2023/01/26 14:29:54;;;;;;;;;;;0.20;99.90;;;;;;4929969;29;19931;-72
2023/01/26 14:32:28;;;;;;;;;;;0.20;99.90;;;;;;4933497;29;19930;-72
2023/01/26 14:34:59;;;;;;;;;;;0.20;99.90;;;;;;4916107;29;19998;-72
2023/01/26 14:37:34;;;;;;;;;;;0.20;99.90;;;;;;4917153;29;19927;-72
2023/01/26 14:40:15;;;;;;;;;;;0.20;99.90;;;;;;4917125;29;19934;-70
2023/01/26 14:42:44;;;;;;;;;;;0.20;99.90;;;;;;4928206;29;19927;-70
2023/01/26 14:45:13;;;;;;;;;;;0.20;99.90;;;;;;4915965;29;20740;-71
2023/01/26 14:47:44;;;;;;;;;;;0.20;99.90;;;;;;4916449;29;20298;-71
2023/01/26 14:50:15;;;;;;;;;;;0.20;99.90;;;;;;4912497;29;20017;-71
2023/01/26 14:52:45;;;;;;;;;;;0.20;99.90;;;;;;4913736;29;19927;-73
2023/01/26 14:55:18;;;;;;;;;;;0.10;99.90;;;;;;4930031;28;20425;-72
2023/01/26 14:57:46;;;;;;;;;;;0.10;99.90;;;;;;4916755;29;19934;-71
2023/01/26 15:00:37;;;;;;;;;;;0.20;99.90;;;;;;4934106;29;19933;-70
2023/01/26 15:03:30;;;;;;;;;;;0.10;99.90;;;;;;4934407;29;19980;-71
2023/01/26 15:06:17;;;;;;;;;;;0.20;99.90;;;;;;4914670;29;20017;-70
2023/01/26 15:08:55;;;;;;;;;;;0.20;99.90;;;;;;4923201;29;19994;-70
2023/01/26 15:14:34;;;;;;;;;;;0.10;99.90;;;;;;4928312;29;20030;-71
2023/01/26 15:17:04;;;;;;;;;;;0.10;99.90;;;;;;4915381;29;19927;-70
2023/01/26 15:19:40;;;;;;;;;;;0.00;99.90;;;;;;4931276;29;19955;-71
2023/01/26 15:22:19;;;;;;;;;;;-0.10;99.90;;;;;;4947795;29;19926;-70
2023/01/26 15:24:58;;;;;;;;;;;-0.10;99.90;;;;;;4931260;29;20013;-71
2023/01/26 15:27:31;;;;;;;;;;;-0.10;99.90;;;;;;4918364;29;19927;-70
2023/01/26 15:30:00;;;;;;;;;;;-0.10;99.90;;;;;;4919149;29;19945;-72
2023/01/26 15:32:39;;;;;;;;;;;-0.10;99.90;;;;;;4929881;29;19927;-70
2023/01/26 15:35:23;;;;;;;;;;;0.00;99.90;;;;;;4929423;29;19966;-70
2023/01/26 15:38:01;;;;;;;;;;;0.00;99.90;;;;;;4932016;29;19931;-71
2023/01/26 15:40:28;;;;;;;;;;;0.10;99.90;;;;;;4927514;29;20022;-69
2023/01/26 15:43:11;;;;;;;;;;;0.20;99.90;;;;;;4914285;29;19935;-71
2023/01/26 15:45:53;;;;;;;;;;;0.20;99.90;;;;;;4929206;29;19990;-71
2023/01/26 15:48:21;;;;;;;;;;;0.10;99.90;;;;;;4925854;29;19931;-76
2023/01/26 15:50:53;;;;;;;;;;;0.10;99.90;;;;;;4924374;29;19951;-77
2023/01/26 15:53:22;;;;;;;;;;;0.10;99.90;;;;;;4922978;29;19927;-70
2023/01/26 15:55:54;;;;;;;;;;;0.20;99.90;;;;;;4916360;29;19926;-70
2023/01/26 15:58:24;;;;;;;;;;;0.10;99.90;;;;;;4913919;29;20025;-73
2023/01/26 16:00:53;;;;;;;;;;;0.10;99.90;;;;;;4900654;29;19927;-71
2023/01/26 16:03:23;;;;;;;;;;;0.10;99.90;;;;;;4935202;28;19978;-72